createdAt,value
2023-01-09T00:01:00.910Z,99211.56
2023-01-09T00:03:32.927Z,99209.72
2023-01-09T00:06:04.959Z,99188.63
2023-01-09T00:08:36.990Z,99202.69
2023-01-09T00:11:08.996Z,99210.53
2023-01-09T00:13:41.251Z,99213.09
2023-01-09T00:16:13.805Z,99223.53
2023-01-09T00:18:46.076Z,99227.94
2023-01-09T00:21:18.027Z,99232.19
2023-01-09T00:23:50.037Z,99233.81
2023-01-09T00:26:22.809Z,99234.56
2023-01-09T00:28:54.943Z,99231.88
2023-01-09T00:31:27.422Z,99224.03
2023-01-09T00:34:04.577Z,99190.44
2023-01-09T00:36:36.575Z,99224.75
2023-01-09T00:39:08.728Z,99236.97
2023-01-09T00:41:51.918Z,99236.91
2023-01-09T00:44:35.146Z,99242.13
2023-01-09T00:47:15.772Z,99243.81
2023-01-09T00:49:50.281Z,99235.81
2023-01-09T00:52:22.988Z,99244.56
2023-01-09T00:54:54.909Z,99241.94
2023-01-09T00:57:26.886Z,99242.81
2023-01-09T01:00:00.218Z,99238.38
2023-01-09T01:02:32.369Z,99241.78
2023-01-09T01:05:23.733Z,99236.56
2023-01-09T01:07:55.704Z,99255.69
2023-01-09T01:10:28.129Z,99247.84
2023-01-09T01:13:00.095Z,99248.66
2023-01-09T01:15:32.084Z,99245.19
2023-01-09T01:18:04.149Z,99244.34
2023-01-09T01:20:36.243Z,99250.41
2023-01-09T01:23:09.053Z,99259.09
2023-01-09T01:25:42.886Z,99253.81
2023-01-09T01:28:14.881Z,99256.47
2023-01-09T01:30:46.813Z,99259.78
2023-01-09T01:33:18.875Z,99265.78
2023-01-09T01:35:50.789Z,99266.66
2023-01-09T01:38:22.783Z,99275.41
2023-01-09T01:40:56.011Z,99276.34
2023-01-09T01:43:28.681Z,99274.56
2023-01-09T01:46:00.671Z,99269.22
2023-01-09T01:48:32.832Z,99276.06
2023-01-09T01:51:07.928Z,99281.25
2023-01-09T01:53:52.743Z,99271.63
2023-01-09T01:56:30.106Z,99272.41
2023-01-09T01:59:09.091Z,99251.34
2023-01-09T02:01:48.268Z,99261.91
2023-01-09T02:04:20.955Z,99274.06
2023-01-09T02:06:56.371Z,99282.75
2023-01-09T02:09:28.815Z,99281.06
2023-01-09T02:12:00.956Z,99279.28
2023-01-09T02:14:33.091Z,99274.06
2023-01-09T02:17:15.499Z,99275.72
2023-01-09T02:20:31.043Z,99261.41
2023-01-09T02:23:44.501Z,99276.31
2023-01-09T02:26:44.478Z,99281.56
2023-01-09T02:29:58.034Z,99274.59
2023-01-09T02:33:26.066Z,99270.22
2023-01-09T02:36:06.478Z,99273.72
2023-01-09T02:38:58.239Z,99253.41
2023-01-09T02:41:55.351Z,99266.50
2023-01-09T02:44:30.882Z,99270.06
2023-01-09T02:47:31.674Z,99269.16
2023-01-09T02:50:09.916Z,99268.25
2023-01-09T02:53:08.138Z,99271.72
2023-01-09T02:56:24.028Z,99272.53
2023-01-09T02:59:33.467Z,99258.59
2023-01-09T03:02:35.457Z,99250.69
2023-01-09T03:05:42.217Z,99248.09
2023-01-09T03:08:23.243Z,99249.94
2023-01-09T03:11:07.686Z,99243.88
2023-01-09T03:13:50.209Z,99234.22
2023-01-09T03:16:33.849Z,99241.31
2023-01-09T03:19:12.694Z,99253.53
2023-01-09T03:21:47.368Z,99266.50
2023-01-09T03:24:19.319Z,99271.66
2023-01-09T03:26:54.315Z,99276.81
2023-01-09T03:29:27.440Z,99273.38
2023-01-09T03:32:00.294Z,99269.81
2023-01-09T03:34:32.207Z,99273.97
2023-01-09T03:37:04.992Z,99280.25
2023-01-09T03:39:36.926Z,99268.97
2023-01-09T03:42:08.839Z,99263.75
2023-01-09T03:44:40.780Z,99264.66
2023-01-09T03:47:20.499Z,99263.75
2023-01-09T03:49:52.523Z,99269.75
2023-01-09T03:52:24.514Z,99271.53
2023-01-09T03:54:56.416Z,99267.97
2023-01-09T03:57:28.341Z,99268.88
2023-01-09T04:00:00.287Z,99271.53
2023-01-09T04:02:32.261Z,99273.19
2023-01-09T04:05:04.549Z,99274.91
2023-01-09T04:07:36.512Z,99255.63
2023-01-09T04:10:11.633Z,99267.97
2023-01-09T04:12:43.562Z,99267.91
2023-01-09T04:15:15.561Z,99271.34
2023-01-09T04:17:47.549Z,99271.34
2023-01-09T04:20:19.460Z,99268.72
2023-01-09T04:22:51.424Z,99262.63
2023-01-09T04:25:23.340Z,99273.13
2023-01-09T04:27:55.256Z,99276.63
2023-01-09T04:30:27.272Z,99279.28
2023-01-09T04:32:59.285Z,99264.34
2023-01-09T04:35:31.164Z,99287.13
2023-01-09T04:38:03.211Z,99277.66
2023-01-09T04:40:35.111Z,99270.69
2023-01-09T04:43:07.028Z,99265.66
2023-01-09T04:45:39.105Z,99269.09
2023-01-09T04:48:11.436Z,99268.25
2023-01-09T04:50:43.404Z,99265.72
2023-01-09T04:53:15.368Z,99268.31
2023-01-09T04:55:47.273Z,99263.09
2023-01-09T04:58:19.260Z,99271.06
2023-01-09T05:00:52.116Z,99267.66
2023-01-09T05:03:24.121Z,99269.41
2023-01-09T05:05:56.091Z,99258.94
2023-01-09T05:08:28.070Z,99265.00
2023-01-09T05:11:00.557Z,99265.00
2023-01-09T05:13:32.473Z,99262.34
2023-01-09T05:16:04.760Z,99265.91
2023-01-09T05:18:36.899Z,99270.34
2023-01-09T05:21:10.582Z,99263.50
2023-01-09T05:23:42.515Z,99259.16
2023-01-09T05:26:14.444Z,99260.06
2023-01-09T05:28:46.335Z,99268.91
2023-01-09T05:31:19.885Z,99258.44
2023-01-09T05:33:52.981Z,99261.97
2023-01-09T05:36:25.165Z,99259.41
2023-01-09T05:38:57.949Z,99259.44
2023-01-09T05:41:29.883Z,99267.28
2023-01-09T05:44:01.869Z,99255.97
2023-01-09T05:46:33.874Z,99248.19
2023-01-09T05:49:05.944Z,99236.88
2023-01-09T05:51:37.931Z,99246.50
2023-01-09T05:54:09.875Z,99237.66
2023-01-09T05:56:42.734Z,99242.06
2023-01-09T05:59:14.675Z,99243.03
2023-01-09T06:01:46.631Z,99242.16
2023-01-09T06:04:18.613Z,99243.94
2023-01-09T06:06:50.542Z,99248.38
2023-01-09T06:09:22.626Z,99244.88
2023-01-09T06:11:54.858Z,99238.81
2023-01-09T06:14:26.777Z,99239.75
2023-01-09T06:16:58.867Z,99233.69
2023-01-09T06:19:30.830Z,99236.31
2023-01-09T06:22:02.845Z,99242.44
2023-01-09T06:24:34.814Z,99246.84
2023-01-09T06:27:06.787Z,99238.13
2023-01-09T06:29:39.468Z,99232.91
2023-01-09T06:32:11.346Z,99246.97
2023-01-09T06:34:43.420Z,99250.50
2023-01-09T06:37:15.519Z,99247.03
2023-01-09T06:39:47.655Z,99248.78
2023-01-09T06:42:19.749Z,99250.47
2023-01-09T06:44:51.724Z,99244.41
2023-01-09T06:47:23.717Z,99254.00
2023-01-09T06:49:57.609Z,99254.88
2023-01-09T06:52:29.547Z,99234.78
2023-01-09T06:55:01.539Z,99233.78
2023-01-09T06:57:33.449Z,99254.06
2023-01-09T07:00:06.265Z,99239.91
2023-01-09T07:02:38.312Z,99261.91
2023-01-09T07:05:11.968Z,99268.88
2023-01-09T07:07:44.030Z,99273.25
2023-01-09T07:10:16.312Z,99275.09
2023-01-09T07:12:48.298Z,99266.44
2023-01-09T07:15:20.319Z,99271.69
2023-01-09T07:17:54.067Z,99270.75
2023-01-09T07:20:26.252Z,99284.81
2023-01-09T07:22:58.775Z,99282.19
2023-01-09T07:25:30.661Z,99289.09
2023-01-09T07:28:02.574Z,99288.22
2023-01-09T07:30:34.577Z,99296.06
2023-01-09T07:33:06.592Z,99299.50
2023-01-09T07:35:38.682Z,99295.78
2023-01-09T07:38:10.655Z,99319.69
2023-01-09T07:40:42.582Z,99319.53
2023-01-09T07:43:14.681Z,99309.91
2023-01-09T07:45:46.789Z,99277.28
2023-01-09T07:48:18.801Z,99323.03
2023-01-09T07:50:50.795Z,99334.38
2023-01-09T07:53:22.855Z,99329.22
2023-01-09T07:55:54.810Z,99321.25
2023-01-09T07:58:26.769Z,99341.41
2023-01-09T08:00:58.722Z,99343.19
2023-01-09T08:03:30.655Z,99343.19
2023-01-09T08:06:02.640Z,99341.34
2023-01-09T08:08:34.532Z,99349.19
2023-01-09T08:11:06.579Z,99356.25
2023-01-09T08:13:38.564Z,99365.81
2023-01-09T08:16:10.489Z,99355.28
2023-01-09T08:18:42.577Z,99362.25
2023-01-09T08:21:14.581Z,99364.00
2023-01-09T08:23:46.658Z,99383.13
2023-01-09T08:26:19.724Z,99372.59
2023-01-09T08:28:51.738Z,99381.41
2023-01-09T08:31:23.798Z,99376.84
2023-01-09T08:33:55.818Z,99383.84
2023-01-09T08:36:27.763Z,99395.34
2023-01-09T08:38:59.740Z,99404.91
2023-01-09T08:41:50.011Z,99413.50
2023-01-09T08:44:41.080Z,99415.28
2023-01-09T08:47:20.444Z,99427.41
2023-01-09T08:49:52.360Z,99424.84
2023-01-09T08:52:24.726Z,99426.59
2023-01-09T08:54:57.325Z,99435.34
2023-01-09T08:57:29.277Z,99431.84
2023-01-09T09:00:01.991Z,99449.34
2023-01-09T09:02:33.980Z,99449.34
2023-01-09T09:05:06.768Z,99443.91
2023-01-09T09:07:38.792Z,99473.63
2023-01-09T09:10:11.316Z,99482.34
2023-01-09T09:12:43.985Z,99485.81
2023-01-09T09:15:34.467Z,99473.44
2023-01-09T09:18:07.529Z,99490.91
2023-01-09T09:20:39.803Z,99480.41
2023-01-09T09:23:11.948Z,99496.25
2023-01-09T09:25:44.005Z,99505.94
2023-01-09T09:28:16.133Z,99512.06
2023-01-09T09:30:48.134Z,99517.34
2023-01-09T09:33:20.243Z,99517.25
2023-01-09T09:35:52.214Z,99531.19
2023-01-09T09:38:24.223Z,99528.50
2023-01-09T09:41:50.896Z,99531.91
2023-01-09T09:45:20.502Z,99535.28
2023-01-09T09:48:27.701Z,99554.47
2023-01-09T09:51:08.536Z,99562.38
2023-01-09T09:53:49.598Z,99572.06
2023-01-09T09:56:23.853Z,99565.94
2023-01-09T09:59:15.075Z,99583.47
2023-01-09T10:02:09.423Z,99600.06
2023-01-09T10:04:50.471Z,99593.13
2023-01-09T10:07:51.136Z,99600.91
2023-01-09T10:10:34.771Z,99610.66
2023-01-09T10:13:35.815Z,99604.59
2023-01-09T10:16:20.319Z,99615.06
2023-01-09T10:19:33.575Z,99609.78
2023-01-09T10:22:25.282Z,99619.59
2023-01-09T10:25:30.695Z,99619.53
2023-01-09T10:28:21.606Z,99634.59
2023-01-09T10:31:08.206Z,99637.19
2023-01-09T10:33:49.277Z,99639.81
2023-01-09T10:36:44.717Z,99630.97
2023-01-09T10:39:26.249Z,99637.09
2023-01-09T10:42:04.708Z,99638.75
2023-01-09T10:44:51.250Z,99636.13
2023-01-09T10:47:37.446Z,99636.06
2023-01-09T10:50:32.995Z,99651.81
2023-01-09T10:53:27.568Z,99635.22
2023-01-09T10:56:20.321Z,99639.50
2023-01-09T10:58:55.178Z,99645.69
2023-01-09T11:01:37.496Z,99630.75
2023-01-09T11:04:36.269Z,99653.66
2023-01-09T11:07:24.618Z,99643.50
2023-01-09T11:10:14.390Z,99666.69
2023-01-09T11:12:47.704Z,99658.59
2023-01-09T11:15:31.232Z,99661.47
2023-01-09T11:18:24.743Z,99665.50
2023-01-09T11:21:11.441Z,99656.81
2023-01-09T11:23:43.401Z,99655.03
2023-01-09T11:26:28.341Z,99661.16
2023-01-09T11:29:10.931Z,99671.47
2023-01-09T11:31:54.019Z,99675.69
2023-01-09T11:34:33.188Z,99661.47
2023-01-09T11:37:16.332Z,99678.22
2023-01-09T11:39:48.440Z,99678.34
2023-01-09T11:42:48.472Z,99679.53
2023-01-09T11:45:35.987Z,99675.94
2023-01-09T11:48:30.161Z,99683.41
2023-01-09T11:51:16.923Z,99683.09
2023-01-09T11:54:02.351Z,99690.41
2023-01-09T11:56:37.440Z,99694.50
2023-01-09T11:59:18.334Z,99695.16
2023-01-09T12:02:31.226Z,99707.97
2023-01-09T12:05:43.826Z,99695.50
2023-01-09T12:08:30.908Z,99703.25
2023-01-09T12:11:30.104Z,99696.19
2023-01-09T12:14:33.075Z,99703.31
2023-01-09T12:17:26.279Z,99705.22
2023-01-09T12:20:19.412Z,99700.91
2023-01-09T12:23:15.685Z,99712.66
2023-01-09T12:26:15.757Z,99715.56
2023-01-09T12:28:47.639Z,99714.78
2023-01-09T12:31:25.943Z,99719.00
2023-01-09T12:34:27.698Z,99714.31
2023-01-09T12:37:36.065Z,99713.31
2023-01-09T12:40:17.124Z,99717.66
2023-01-09T12:43:45.059Z,99716.94
2023-01-09T12:46:24.572Z,99718.00
2023-01-09T12:49:08.527Z,99722.41
2023-01-09T12:52:12.264Z,99722.38
2023-01-09T12:55:19.419Z,99739.81
2023-01-09T12:57:57.349Z,99720.53
2023-01-09T13:00:40.553Z,99726.41
2023-01-09T13:03:27.574Z,99742.22
2023-01-09T13:06:02.905Z,99736.06
2023-01-09T13:09:07.066Z,99749.13
2023-01-09T13:11:49.397Z,99750.03
2023-01-09T13:14:52.765Z,99750.09
2023-01-09T13:18:05.009Z,99766.66
2023-01-09T13:20:47.803Z,99770.94
2023-01-09T13:24:01.568Z,99769.03
2023-01-09T13:27:14.893Z,99772.59
2023-01-09T13:30:06.685Z,99780.41
2023-01-09T13:33:07.723Z,99784.59
2023-01-09T13:35:55.599Z,99785.44
2023-01-09T13:38:31.358Z,99808.25
2023-01-09T13:41:34.876Z,99807.28
2023-01-09T13:44:28.708Z,99808.19
2023-01-09T13:47:03.343Z,99812.78
2023-01-09T13:49:46.907Z,99816.19
2023-01-09T13:52:36.792Z,99822.31
2023-01-09T13:55:15.048Z,99829.53
2023-01-09T13:58:14.221Z,99821.66
2023-01-09T14:00:51.871Z,99826.97
2023-01-09T14:03:34.569Z,99818.09
2023-01-09T14:06:14.262Z,99844.53
2023-01-09T14:08:49.371Z,99849.78
2023-01-09T14:11:25.990Z,99853.16
2023-01-09T14:14:04.684Z,99860.88
2023-01-09T14:16:38.149Z,99863.50
2023-01-09T14:19:16.277Z,99865.19
2023-01-09T14:21:57.379Z,99854.56
2023-01-09T14:24:46.412Z,99880.19
2023-01-09T14:27:55.287Z,99894.13
2023-01-09T14:30:27.238Z,99897.75
2023-01-09T14:33:22.687Z,99906.38
2023-01-09T14:36:19.548Z,99914.91
2023-01-09T14:39:04.142Z,99918.38
2023-01-09T14:41:58.365Z,99917.41
2023-01-09T14:44:53.622Z,99931.34
2023-01-09T14:47:31.340Z,99940.09
2023-01-09T14:50:15.154Z,99946.97
2023-01-09T14:53:05.829Z,99944.28
2023-01-09T14:55:53.680Z,99953.78
2023-01-09T14:58:36.665Z,99963.44
2023-01-09T15:01:22.938Z,99962.38
2023-01-09T15:04:02.719Z,99980.81
2023-01-09T15:06:43.389Z,99984.31
2023-01-09T15:09:26.183Z,99997.41
2023-01-09T15:12:09.518Z,99972.22
2023-01-09T15:14:45.936Z,100015.44
2023-01-09T15:17:33.821Z,100021.47
2023-01-09T15:20:08.006Z,100034.59
2023-01-09T15:22:40.046Z,100029.25
2023-01-09T15:25:40.246Z,100054.31
2023-01-09T15:28:25.273Z,100061.22
2023-01-09T15:31:16.724Z,100050.50
2023-01-09T15:33:49.729Z,100061.72
2023-01-09T15:36:26.548Z,100067.59
2023-01-09T15:38:59.781Z,100063.16
2023-01-09T15:41:50.917Z,100077.00
2023-01-09T15:44:30.247Z,100069.78
2023-01-09T15:47:05.775Z,100079.44
2023-01-09T15:49:38.292Z,100079.44
2023-01-09T15:52:15.414Z,100078.44
2023-01-09T15:54:47.543Z,100091.97
2023-01-09T15:57:25.877Z,100096.41
2023-01-09T16:00:33.943Z,100105.16
2023-01-09T16:03:20.332Z,100115.00
2023-01-09T16:06:06.868Z,100119.28
2023-01-09T16:08:47.784Z,100123.47
2023-01-09T16:11:31.913Z,100123.28
2023-01-09T16:14:22.840Z,100142.75
2023-01-09T16:17:07.393Z,100133.84
2023-01-09T16:20:10.499Z,100146.09
2023-01-09T16:22:56.411Z,100139.81
2023-01-09T16:25:34.793Z,100113.28
2023-01-09T16:28:28.255Z,100135.22
2023-01-09T16:31:08.855Z,100125.38
2023-01-09T16:33:52.185Z,100145.69
2023-01-09T16:36:25.135Z,100152.63
2023-01-09T16:38:58.148Z,100154.41
2023-01-09T16:41:49.219Z,100150.81
2023-01-09T16:44:21.210Z,100163.16
2023-01-09T16:46:53.868Z,100169.38
2023-01-09T16:49:28.284Z,100171.09
2023-01-09T16:52:03.071Z,100179.03
2023-01-09T16:54:35.073Z,100181.69
2023-01-09T16:57:17.769Z,100190.41
2023-01-09T16:59:49.820Z,100186.09
2023-01-09T17:02:22.030Z,100192.25
2023-01-09T17:04:59.200Z,100198.44
2023-01-09T17:07:31.236Z,100199.34
2023-01-09T17:10:03.961Z,100219.47
2023-01-09T17:12:36.575Z,100222.72
2023-01-09T17:15:08.907Z,100232.16
2023-01-09T17:17:40.943Z,100225.97
2023-01-09T17:20:18.395Z,100226.78
2023-01-09T17:22:50.306Z,100238.94
2023-01-09T17:25:40.636Z,100241.47
2023-01-09T17:28:36.095Z,100250.97
2023-01-09T17:31:12.003Z,100255.06
2023-01-09T17:33:43.940Z,100224.63
2023-01-09T17:36:23.234Z,100267.31
2023-01-09T17:38:55.345Z,100271.59
2023-01-09T17:41:32.407Z,100272.31
2023-01-09T17:44:04.896Z,100278.50
2023-01-09T17:46:43.601Z,100278.28
2023-01-09T17:49:21.938Z,100275.44
2023-01-09T17:51:54.188Z,100290.31
2023-01-09T17:54:26.156Z,100299.69
2023-01-09T17:57:05.601Z,100304.81
2023-01-09T17:59:37.456Z,100316.16
2023-01-09T18:02:18.235Z,100310.63
2023-01-09T18:04:50.409Z,100325.34
2023-01-09T18:07:22.400Z,100325.31
2023-01-09T18:09:54.425Z,100322.38
2023-01-09T18:12:27.080Z,100339.38
2023-01-09T18:14:59.041Z,100348.13
2023-01-09T18:17:30.978Z,100347.25
2023-01-09T18:20:04.919Z,100342.63
2023-01-09T18:22:37.204Z,100367.25
2023-01-09T18:25:09.701Z,100377.47
2023-01-09T18:27:41.856Z,100391.38
2023-01-09T18:30:13.998Z,100386.84
2023-01-09T18:32:45.965Z,100391.25
2023-01-09T18:35:17.926Z,100384.00
2023-01-09T18:37:49.926Z,100391.84
2023-01-09T18:40:22.042Z,100406.03
2023-01-09T18:42:54.111Z,100422.50
2023-01-09T18:45:26.629Z,100415.44
2023-01-09T18:47:59.032Z,100419.81
2023-01-09T18:50:31.138Z,100424.94
2023-01-09T18:53:03.118Z,100440.81
2023-01-09T18:55:37.889Z,100451.25
2023-01-09T18:58:09.846Z,100450.28
2023-01-09T19:00:41.861Z,100455.66
2023-01-09T19:03:14.537Z,100465.38
2023-01-09T19:05:46.604Z,100464.31
2023-01-09T19:08:21.354Z,100485.47
2023-01-09T19:10:53.881Z,100476.72
2023-01-09T19:13:31.251Z,100477.75
2023-01-09T19:16:05.179Z,100478.34
2023-01-09T19:18:41.633Z,100492.50
2023-01-09T19:21:17.615Z,100498.63
2023-01-09T19:23:50.183Z,100507.31
2023-01-09T19:26:26.061Z,100504.72
2023-01-09T19:28:58.154Z,100522.19
2023-01-09T19:31:30.329Z,100541.19
2023-01-09T19:34:02.675Z,100534.94
2023-01-09T19:36:35.602Z,100538.41
2023-01-09T19:39:07.602Z,100500.47
2023-01-09T19:41:39.957Z,100564.28
2023-01-09T19:44:12.006Z,100577.28
2023-01-09T19:46:43.906Z,100585.19
2023-01-09T19:49:16.323Z,100586.09
2023-01-09T19:51:50.278Z,100572.72
2023-01-09T19:54:22.404Z,100585.91
2023-01-09T19:56:54.367Z,100591.19
2023-01-09T19:59:26.343Z,100592.00
2023-01-09T20:01:58.400Z,100601.88
2023-01-09T20:04:30.473Z,100606.38
2023-01-09T20:07:03.757Z,100608.91
2023-01-09T20:09:35.752Z,100616.97
2023-01-09T20:12:07.864Z,100623.22
2023-01-09T20:14:39.769Z,100628.56
2023-01-09T20:17:12.021Z,100630.34
2023-01-09T20:19:45.555Z,100631.50
2023-01-09T20:22:17.609Z,100604.47
2023-01-09T20:24:49.670Z,100649.09
2023-01-09T20:27:21.813Z,100651.78
2023-01-09T20:29:53.842Z,100659.63
2023-01-09T20:32:25.801Z,100663.84
2023-01-09T20:34:57.772Z,100664.59
2023-01-09T20:37:29.738Z,100656.75
2023-01-09T20:40:01.672Z,100658.47
2023-01-09T20:42:33.678Z,100660.19
2023-01-09T20:45:06.743Z,100653.88
2023-01-09T20:47:38.696Z,100661.53
2023-01-09T20:50:11.895Z,100635.28
2023-01-09T20:52:43.976Z,100673.56
2023-01-09T20:55:16.064Z,100689.94
2023-01-09T20:57:48.004Z,100700.19
2023-01-09T21:00:20.850Z,100704.56
2023-01-09T21:02:54.247Z,100708.88
2023-01-09T21:05:26.322Z,100706.31
2023-01-09T21:07:58.264Z,100711.69
2023-01-09T21:10:30.196Z,100671.34
2023-01-09T21:13:02.180Z,100709.34
2023-01-09T21:15:34.808Z,100720.66
2023-01-09T21:18:06.968Z,100733.09
2023-01-09T21:20:39.979Z,100739.22
2023-01-09T21:23:12.318Z,100734.81
2023-01-09T21:25:45.303Z,100747.09
2023-01-09T21:28:18.667Z,100750.63
2023-01-09T21:30:50.676Z,100762.06
2023-01-09T21:33:22.727Z,100758.59
2023-01-09T21:35:59.127Z,100765.63
2023-01-09T21:38:31.124Z,100764.72
2023-01-09T21:41:22.096Z,100769.19
2023-01-09T21:44:12.949Z,100773.59
2023-01-09T21:46:57.577Z,100783.25
2023-01-09T21:49:34.912Z,100782.16
2023-01-09T21:52:07.504Z,100773.06
2023-01-09T21:54:40.863Z,100780.81
2023-01-09T21:57:13.187Z,100785.44
2023-01-09T21:59:45.251Z,100778.97
2023-01-09T22:02:17.329Z,100777.88
2023-01-09T22:04:49.294Z,100805.53
2023-01-09T22:07:21.779Z,100802.06
2023-01-09T22:09:53.688Z,100804.69
2023-01-09T22:12:25.656Z,100788.19
2023-01-09T22:14:57.612Z,100814.34
2023-01-09T22:17:29.791Z,100809.66
2023-01-09T22:20:01.712Z,100817.72
2023-01-09T22:22:33.682Z,100821.78
2023-01-09T22:25:07.000Z,100840.25
2023-01-09T22:27:38.992Z,100849.69
2023-01-09T22:30:12.074Z,100863.59
2023-01-09T22:32:44.617Z,100876.59
2023-01-09T22:35:16.649Z,100872.13
2023-01-09T22:37:48.622Z,100875.41
2023-01-09T22:40:20.671Z,100884.38
2023-01-09T22:42:53.322Z,100885.59
2023-01-09T22:45:25.906Z,100891.78
2023-01-09T22:47:58.108Z,100913.06
2023-01-09T22:50:30.085Z,100906.03
2023-01-09T22:53:02.055Z,100916.28
2023-01-09T22:55:34.029Z,100914.19
2023-01-09T22:58:05.960Z,100922.56
2023-01-09T23:00:37.890Z,100924.03
2023-01-09T23:03:09.902Z,100932.69
2023-01-09T23:05:41.910Z,100941.53
2023-01-09T23:08:14.522Z,100942.28
2023-01-09T23:10:47.735Z,100947.41
2023-01-09T23:13:19.690Z,100962.28
2023-01-09T23:15:52.127Z,100948.75
2023-01-09T23:18:24.853Z,100969.06
2023-01-09T23:21:03.692Z,100965.94
2023-01-09T23:23:35.628Z,100974.66
2023-01-09T23:26:07.584Z,100980.69
2023-01-09T23:28:39.507Z,100979.34
2023-01-09T23:31:11.416Z,100978.34
2023-01-09T23:33:43.384Z,101009.38
2023-01-09T23:36:15.274Z,101019.06
2023-01-09T23:38:47.221Z,101013.75
2023-01-09T23:41:19.903Z,101035.50
2023-01-09T23:43:51.808Z,101033.72
2023-01-09T23:46:23.716Z,101037.78
2023-01-09T23:48:55.662Z,101040.22
2023-01-09T23:51:27.664Z,101029.63
2023-01-09T23:53:59.628Z,101037.88
2023-01-09T23:56:33.860Z,101042.19
2023-01-09T23:59:10.408Z,101046.47
